Terminal Aerodrome Forecast
Issued by NWS

Current Version | Previous Version | Graphics & Text | Print | Product List | Glossary On
Versions: 1 2 3 4 5 6 7 8 9 10 11 12 13 14 15 16 17 18 19 20 21 22 23 24 25 26 27 28 29 30 31 32 33 34 35 36 37 38 39 40 41 42 43 44
000
FTUS41 KRNK 240541
TAFLWB
TAF
KLWB 240541Z 2406/2506 00000KT P6SM -DZ SCT030 BKN120
      TEMPO 2407/2408 4SM SHRA BR BKN030
     FM240900 00000KT 3SM BR VCSH OVC025
     FM241600 29005KT P6SM VCTS BKN040CB
     FM241900 31007KT P6SM BKN050=

USA.gov is the U.S. government's official web portal to all federal, state and local government web resources and services.